Time;durP1;ratioP1;P1;durP2;ratioP2;P2;SDS_P1;SDS_P2;PMS_P1;PMS_P2;Temp;Humidity;BMP_temperature;BMP_pressure;BME280_temperature;BME280_humidity;BME280_pressure;Samples;Min_cycle;Max_cycle;Signal;HPM_P1;HPM_P2
2021/10/27 00:00:24;;;;;;;18.90;11.52;;;;;;;4.50;68.71;95593.22;5122738;27;20019;-70
2021/10/27 00:02:50;;;;;;;20.35;11.80;;;;;;;4.50;68.30;95586.31;5112375;28;20036;-71
2021/10/27 00:05:15;;;;;;;15.63;11.15;;;;;;;4.40;68.53;95569.63;5110930;27;20103;-70
2021/10/27 00:07:41;;;;;;;19.70;12.40;;;;;;;4.48;68.51;95583.84;5113720;27;20143;-72
2021/10/27 00:10:07;;;;;;;17.58;12.13;;;;;;;4.40;68.46;95562.78;5094266;28;20028;-70
2021/10/27 00:12:32;;;;;;;19.17;13.40;;;;;;;4.51;68.48;95572.53;5098947;28;20031;-70
2021/10/27 00:14:58;;;;;;;19.15;12.07;;;;;;;4.46;68.45;95583.06;5111029;28;20022;-70
2021/10/27 00:17:24;;;;;;;20.23;12.85;;;;;;;4.34;68.81;95575.91;5110903;27;20040;-70
2021/10/27 00:19:49;;;;;;;19.88;12.98;;;;;;;4.32;69.08;95582.88;5107311;28;20502;-70
2021/10/27 00:22:15;;;;;;;19.25;11.45;;;;;;;4.33;69.11;95579.38;5112383;28;20114;-70
2021/10/27 00:24:40;;;;;;;18.20;12.18;;;;;;;4.26;68.78;95567.69;5076617;28;20035;-70
2021/10/27 00:27:07;;;;;;;18.25;12.82;;;;;;;4.24;68.85;95570.38;5112218;28;20039;-70
2021/10/27 00:29:36;;;;;;;20.33;12.38;;;;;;;4.29;68.92;95567.59;5093883;28;20034;-70
2021/10/27 00:32:01;;;;;;;20.75;14.60;;;;;;;4.18;68.92;95564.66;5103392;28;20052;-70
2021/10/27 00:34:26;;;;;;;17.25;13.02;;;;;;;4.24;69.21;95577.25;5090384;28;20032;-70
2021/10/27 00:36:52;;;;;;;19.40;12.18;;;;;;;4.23;69.18;95573.00;5090264;28;20501;-70
2021/10/27 00:39:17;;;;;;;22.52;13.90;;;;;;;4.23;68.87;95568.69;5091480;28;20028;-70
2021/10/27 00:41:43;;;;;;;20.40;13.05;;;;;;;4.20;69.30;95562.84;5085005;28;20036;-70
2021/10/27 00:44:19;;;;;;;19.95;13.40;;;;;;;4.16;69.15;95561.34;5090075;28;20028;-70
2021/10/27 00:46:45;;;;;;;17.38;11.95;;;;;;;4.19;69.11;95571.47;5072825;28;20395;-70
2021/10/27 00:49:10;;;;;;;19.90;13.63;;;;;;;4.10;69.12;95557.31;5093625;28;20035;-71
2021/10/27 00:51:36;;;;;;;20.27;13.10;;;;;;;4.09;69.37;95562.50;5111822;28;20035;-70
2021/10/27 00:54:02;;;;;;;19.92;12.48;;;;;;;4.11;69.29;95556.38;5110387;28;20546;-70
2021/10/27 00:56:28;;;;;;;18.05;12.05;;;;;;;4.13;68.82;95561.47;5110356;28;20035;-70
2021/10/27 00:58:53;;;;;;;18.48;12.25;;;;;;;4.10;69.16;95561.63;5076524;28;20031;-70
2021/10/27 01:01:18;;;;;;;17.08;12.23;;;;;;;3.97;68.81;95551.03;5095487;28;20036;-70
2021/10/27 01:03:44;;;;;;;19.58;12.35;;;;;;;3.99;69.20;95550.06;5073293;28;20481;-70
2021/10/27 01:06:09;;;;;;;19.95;13.00;;;;;;;3.95;69.20;95540.81;5089840;28;20039;-70
2021/10/27 01:08:35;;;;;;;18.95;12.88;;;;;;;3.93;69.23;95544.38;5097627;28;20027;-70
2021/10/27 01:11:01;;;;;;;20.13;13.65;;;;;;;3.91;69.12;95552.16;5093077;28;20043;-70
2021/10/27 01:13:27;;;;;;;17.75;12.40;;;;;;;3.75;69.40;95530.59;5110169;28;20036;-70
2021/10/27 01:15:52;;;;;;;23.63;13.45;;;;;;;3.79;69.82;95550.16;5110133;28;20513;-70
2021/10/27 01:18:17;;;;;;;17.83;11.93;;;;;;;3.71;69.84;95542.75;5110127;28;20024;-70
2021/10/27 01:20:43;;;;;;;22.27;11.95;;;;;;;3.77;69.65;95555.34;5111235;28;20058;-70
2021/10/27 01:23:08;;;;;;;16.17;10.30;;;;;;;3.80;69.32;95555.19;5092771;28;20098;-71
2021/10/27 01:25:34;;;;;;;17.65;12.52;;;;;;;3.77;69.60;95544.22;5111217;28;20031;-70
2021/10/27 01:28:00;;;;;;;17.23;11.57;;;;;;;3.75;69.55;95554.56;5102687;28;20201;-70
2021/10/27 01:30:25;;;;;;;16.77;11.88;;;;;;;3.70;69.51;95548.78;5089588;28;20395;-70
2021/10/27 01:32:51;;;;;;;18.67;11.43;;;;;;;3.73;69.30;95558.09;5072874;28;20059;-70
2021/10/27 01:35:16;;;;;;;22.02;12.18;;;;;;;3.68;69.52;95554.94;5072726;28;20020;-70
2021/10/27 01:37:42;;;;;;;18.40;12.45;;;;;;;3.58;69.72;95539.88;5089720;28;20470;-70
2021/10/27 01:40:11;;;;;;;20.52;12.63;;;;;;;3.69;69.41;95556.59;5072851;28;20421;-70
2021/10/27 01:42:36;;;;;;;19.45;11.48;;;;;;;3.69;69.67;95554.84;5090430;28;20031;-70
2021/10/27 01:45:03;;;;;;;15.63;11.13;;;;;;;3.59;69.82;95551.00;5072568;28;20044;-70
2021/10/27 01:47:28;;;;;;;16.52;11.70;;;;;;;3.62;70.24;95560.31;5072911;28;20048;-70
2021/10/27 01:49:54;;;;;;;16.98;12.68;;;;;;;3.60;69.65;95551.84;5090651;28;20024;-69
2021/10/27 01:52:19;;;;;;;17.40;12.07;;;;;;;3.62;69.54;95562.88;5089328;28;20559;-70
2021/10/27 01:54:44;;;;;;;18.17;11.50;;;;;;;3.49;69.86;95544.59;5090552;28;20031;-71
2021/10/27 01:57:11;;;;;;;14.88;11.40;;;;;;;3.50;69.54;95552.22;5090864;28;20472;-71
2021/10/27 01:59:36;;;;;;;23.27;12.07;;;;;;;3.48;69.78;95561.75;5074675;28;20024;-71
2021/10/27 02:02:02;;;;;;;20.67;12.18;;;;;;;3.46;69.54;95561.00;5094385;28;20032;-70
2021/10/27 02:04:27;;;;;;;17.33;11.85;;;;;;;3.44;69.77;95557.63;5076502;28;20032;-71
2021/10/27 02:06:53;;;;;;;16.20;11.02;;;;;;;3.46;70.08;95560.16;5083365;28;20047;-71
2021/10/27 02:09:18;;;;;;;15.88;11.52;;;;;;;3.45;70.10;95563.59;5113531;28;20418;-71
2021/10/27 02:11:44;;;;;;;17.63;11.70;;;;;;;3.47;70.26;95566.94;5079599;28;20027;-71
2021/10/27 02:14:10;;;;;;;17.77;11.40;;;;;;;3.46;69.48;95571.25;5113393;28;20031;-71
2021/10/27 02:16:35;;;;;;;19.30;11.55;;;;;;;3.39;69.43;95558.75;5113128;28;20469;-71
2021/10/27 02:19:01;;;;;;;14.82;10.60;;;;;;;3.42;69.80;95568.88;5113335;28;20032;-71
2021/10/27 02:21:26;;;;;;;16.13;11.02;;;;;;;3.39;69.38;95576.72;5113116;28;20043;-71
2021/10/27 02:23:52;;;;;;;18.08;12.13;;;;;;;3.31;69.94;95575.28;5114402;28;20034;-72
2021/10/27 02:26:21;;;;;;;20.42;13.10;;;;;;;3.18;69.56;95565.63;5104554;28;20036;-71
2021/10/27 02:28:46;;;;;;;14.60;10.68;;;;;;;3.24;69.59;95583.34;5092462;28;20039;-71
2021/10/27 02:31:11;;;;;;;17.55;11.77;;;;;;;3.19;69.43;95583.53;5092512;28;20032;-71
2021/10/27 02:33:37;;;;;;;18.20;12.43;;;;;;;3.00;69.69;95578.31;5075639;28;20036;-70
2021/10/27 02:36:02;;;;;;;19.08;12.35;;;;;;;2.96;70.22;95581.91;5092388;28;20473;-70
2021/10/27 02:38:28;;;;;;;20.23;12.95;;;;;;;2.92;69.99;95585.47;5092558;28;20446;-70
2021/10/27 02:40:53;;;;;;;19.80;12.48;;;;;;;2.86;70.00;95578.03;5092397;28;20496;-70
2021/10/27 02:43:20;;;;;;;16.70;12.00;;;;;;;2.89;70.52;95585.63;5092539;28;20024;-71
2021/10/27 02:45:48;;;;;;;19.35;12.63;;;;;;;2.80;70.30;95586.00;5092989;28;20043;-70
2021/10/27 02:48:14;;;;;;;22.65;13.95;;;;;;;2.75;70.88;95588.72;5092293;28;20026;-70
2021/10/27 02:50:40;;;;;;;20.02;12.38;;;;;;;2.73;71.07;95584.56;5075387;28;20036;-71
2021/10/27 02:53:06;;;;;;;20.25;12.15;;;;;;;2.71;71.22;95587.19;5092229;28;20024;-70
2021/10/27 02:55:31;;;;;;;16.75;10.82;;;;;;;2.71;71.19;95584.63;5093206;28;20062;-70
2021/10/27 02:57:59;;;;;;;18.85;11.35;;;;;;;2.73;70.63;95587.13;5092135;28;20095;-71
2021/10/27 03:00:25;;;;;;;16.77;11.55;;;;;;;2.74;71.68;95583.69;5092156;28;20183;-71
2021/10/27 03:02:50;;;;;;;21.15;12.15;;;;;;;2.69;71.11;95582.13;5092016;28;20103;-71
2021/10/27 03:05:16;;;;;;;19.80;11.43;;;;;;;2.71;71.73;95583.81;5075211;28;20016;-71
2021/10/27 03:07:42;;;;;;;18.33;12.18;;;;;;;2.68;71.67;95588.16;5091879;28;20040;-71
2021/10/27 03:10:08;;;;;;;16.23;11.75;;;;;;;2.68;71.80;95590.72;5111767;28;20027;-72
2021/10/27 03:12:33;;;;;;;18.50;12.57;;;;;;;2.63;71.92;95578.97;5113515;28;20031;-71
2021/10/27 03:14:59;;;;;;;19.77;12.95;;;;;;;2.60;72.10;95585.06;5112279;28;20096;-71
2021/10/27 03:17:24;;;;;;;20.77;12.65;;;;;;;2.53;72.26;95588.75;5111996;28;20431;-71
2021/10/27 03:19:49;;;;;;;19.50;12.73;;;;;;;2.46;72.42;95592.44;5078242;28;20020;-71
2021/10/27 03:22:15;;;;;;;22.33;13.10;;;;;;;2.55;72.38;95599.78;5112219;28;20043;-71
2021/10/27 03:24:40;;;;;;;17.10;12.13;;;;;;;2.49;72.29;95597.47;5094909;28;20036;-71
2021/10/27 03:27:06;;;;;;;18.48;11.25;;;;;;;2.43;72.49;95585.72;5093208;28;20036;-71
2021/10/27 03:29:31;;;;;;;20.52;12.10;;;;;;;2.52;72.57;95597.34;5112294;28;20092;-71
2021/10/27 03:31:57;;;;;;;19.92;12.65;;;;;;;2.59;72.59;95603.06;5110578;27;20051;-71
2021/10/27 03:34:22;;;;;;;21.35;12.80;;;;;;;2.59;72.63;95601.34;5110240;27;20047;-71
2021/10/27 03:36:48;;;;;;;17.83;12.05;;;;;;;2.57;72.73;95600.56;5125161;27;20028;-70
2021/10/27 03:39:13;;;;;;;18.90;11.63;;;;;;;2.61;72.71;95601.28;5112298;27;20469;-71
2021/10/27 03:41:39;;;;;;;19.55;12.27;;;;;;;2.54;72.38;95582.72;5126028;27;20035;-70
2021/10/27 03:44:05;;;;;;;16.83;11.57;;;;;;;2.55;72.02;95576.69;5104454;28;20035;-73
2021/10/27 03:46:30;;;;;;;18.15;12.35;;;;;;;2.69;71.64;95604.38;5078043;28;20042;-73
2021/10/27 03:48:56;;;;;;;18.48;12.45;;;;;;;2.59;72.03;95601.34;5111830;28;20496;-75
2021/10/27 03:51:21;;;;;;;21.35;12.68;;;;;;;2.43;71.91;95562.63;5094959;28;20417;-75
2021/10/27 03:53:47;;;;;;;17.60;11.52;;;;;;;2.56;72.08;95593.75;5113781;27;20031;-75
2021/10/27 03:56:13;;;;;;;17.83;12.10;;;;;;;2.63;71.81;95595.19;5093573;28;20024;-75
2021/10/27 03:58:38;;;;;;;16.52;10.98;;;;;;;2.62;72.04;95606.34;5117866;27;20033;-74
2021/10/27 04:01:03;;;;;;;16.10;10.95;;;;;;;2.64;71.86;95590.88;5133376;27;20390;-73
2021/10/27 04:03:29;;;;;;;16.92;11.43;;;;;;;2.63;72.00;95584.94;5131772;27;20011;-73
2021/10/27 04:05:54;;;;;;;16.75;11.50;;;;;;;2.60;72.33;95590.19;5110228;28;20473;-74
2021/10/27 04:08:20;;;;;;;18.52;10.65;;;;;;;2.62;72.47;95585.84;5121428;27;20027;-76
2021/10/27 04:10:45;;;;;;;17.35;11.63;;;;;;;2.61;72.09;95586.72;5096711;27;20035;-73
2021/10/27 04:13:15;;;;;;;17.10;11.73;;;;;;;2.71;72.35;95601.75;5129821;27;20072;-73
2021/10/27 04:15:40;;;;;;;16.58;11.25;;;;;;;2.66;71.82;95595.06;5110163;28;20057;-72
2021/10/27 04:18:06;;;;;;;17.05;11.18;;;;;;;2.75;72.52;95605.88;5121713;27;20023;-71
2021/10/27 04:20:32;;;;;;;17.02;11.38;;;;;;;2.75;71.88;95605.88;5113009;27;20029;-72
2021/10/27 04:22:57;;;;;;;19.60;13.30;;;;;;;2.65;72.13;95595.97;5104801;27;20032;-72
2021/10/27 04:25:22;;;;;;;18.48;12.00;;;;;;;2.56;71.91;95588.63;5130492;27;20023;-72
2021/10/27 04:27:48;;;;;;;17.00;10.90;;;;;;;2.44;71.90;95578.84;5113702;27;20027;-73
2021/10/27 04:30:13;;;;;;;18.35;11.00;;;;;;;2.68;71.93;95612.97;5093916;27;20027;-72
2021/10/27 04:32:41;;;;;;;18.77;11.35;;;;;;;2.52;72.12;95587.09;5129951;27;20055;-73
2021/10/27 04:35:07;;;;;;;15.52;10.73;;;;;;;2.68;72.00;95612.97;5096288;27;20130;-72
2021/10/27 04:37:37;;;;;;;15.65;11.02;;;;;;;2.71;72.05;95604.31;5130638;27;20035;-73
2021/10/27 04:40:03;;;;;;;16.77;11.73;;;;;;;2.67;71.76;95601.88;5112421;27;20039;-73
2021/10/27 04:42:28;;;;;;;17.85;11.75;;;;;;;2.55;72.38;95597.22;5099612;27;20023;-73
2021/10/27 04:44:53;;;;;;;18.08;11.90;;;;;;;2.63;72.20;95609.75;5112267;27;20163;-73
2021/10/27 04:47:19;;;;;;;17.15;11.85;;;;;;;2.66;71.89;95610.47;5125912;27;20495;-73
2021/10/27 04:49:45;;;;;;;18.10;12.00;;;;;;;2.64;71.88;95612.25;5108888;28;20035;-73
2021/10/27 04:52:10;;;;;;;16.23;12.35;;;;;;;2.54;72.20;95599.84;5113892;27;20077;-72
2021/10/27 04:54:36;;;;;;;18.42;12.68;;;;;;;2.62;71.87;95619.19;5119713;27;20035;-72
2021/10/27 04:57:02;;;;;;;16.10;11.20;;;;;;;2.60;71.88;95607.31;5113463;27;20034;-72
2021/10/27 04:59:35;;;;;;;18.52;11.77;;;;;;;2.67;72.07;95619.00;5125817;27;20055;-72
2021/10/27 05:02:00;;;;;;;18.83;12.23;;;;;;;2.69;72.04;95628.28;5100148;27;20042;-72
2021/10/27 05:04:26;;;;;;;17.65;11.68;;;;;;;2.73;71.80;95633.31;5122418;27;20035;-72
2021/10/27 05:06:51;;;;;;;13.60;10.27;;;;;;;2.70;71.95;95631.69;5107170;28;20036;-73
2021/10/27 05:09:17;;;;;;;16.27;10.82;;;;;;;2.57;71.99;95621.09;5125004;27;20412;-75
2021/10/27 05:11:42;;;;;;;17.40;11.82;;;;;;;2.66;72.10;95630.16;5127896;27;20043;-73
2021/10/27 05:14:08;;;;;;;19.77;12.00;;;;;;;2.73;71.78;95631.59;5122332;27;20547;-75
2021/10/27 05:16:33;;;;;;;19.27;12.00;;;;;;;2.61;71.97;95612.38;5123187;27;20036;-76
2021/10/27 05:18:59;;;;;;;21.02;13.65;;;;;;;2.77;72.18;95645.13;5097938;28;20465;-72
2021/10/27 05:21:24;;;;;;;16.95;11.73;;;;;;;2.83;72.06;95642.31;5127277;28;20034;-72
2021/10/27 05:23:50;;;;;;;21.02;12.05;;;;;;;2.83;71.79;95637.19;5124344;27;20035;-77
2021/10/27 05:26:15;;;;;;;21.92;12.32;;;;;;;2.80;72.49;95639.88;5124100;28;20023;-72
2021/10/27 05:28:41;;;;;;;17.00;11.93;;;;;;;2.97;71.87;95655.44;5121356;27;20443;-71
2021/10/27 05:31:06;;;;;;;17.95;12.02;;;;;;;2.97;71.83;95660.56;5131429;27;20462;-72
2021/10/27 05:33:32;;;;;;;17.25;11.55;;;;;;;3.03;72.17;95668.03;5118293;27;20083;-72
2021/10/27 05:35:57;;;;;;;21.05;13.18;;;;;;;3.02;71.52;95663.81;5136183;27;20500;-73
2021/10/27 05:38:23;;;;;;;19.65;13.10;;;;;;;3.03;71.94;95669.78;5136970;27;20476;-72
2021/10/27 05:40:49;;;;;;;16.58;11.13;;;;;;;3.12;71.42;95670.25;5129796;27;20144;-76
2021/10/27 05:43:15;;;;;;;17.38;12.70;;;;;;;3.12;72.07;95670.25;5132257;27;20412;-75
2021/10/27 05:45:41;;;;;;;19.73;13.60;;;;;;;3.25;71.54;95672.31;5152389;27;20027;-73
2021/10/27 05:48:08;;;;;;;21.30;13.80;;;;;;;3.27;71.51;95675.66;5155514;27;20532;-73
2021/10/27 05:50:38;;;;;;;17.40;11.82;;;;;;;3.25;71.33;95670.56;5128503;27;20024;-77
2021/10/27 05:55:48;;;;;;;16.60;10.93;;;;;;;3.31;71.60;95683.16;5132201;27;20054;-76
2021/10/27 05:58:14;;;;;;;17.83;12.07;;;;;;;3.35;71.64;95681.34;5123241;27;20032;-76
2021/10/27 06:00:40;;;;;;;18.10;11.55;;;;;;;2.94;71.83;95624.78;5131857;27;20175;-76
2021/10/27 06:03:06;;;;;;;18.48;11.48;;;;;;;2.95;71.85;95605.91;5121378;27;20810;-76
2021/10/27 06:05:31;;;;;;;19.38;12.18;;;;;;;3.10;71.42;95630.97;5124993;27;20027;-76
2021/10/27 06:07:58;;;;;;;17.83;11.73;;;;;;;3.26;71.42;95638.88;5116616;27;20562;-76
2021/10/27 06:10:24;;;;;;;38.08;19.70;;;;;;;3.65;71.52;95704.94;5138500;27;20033;-76
2021/10/27 06:12:52;;;;;;;37.33;24.80;;;;;;;3.22;70.76;95621.91;5129671;27;20087;-76
2021/10/27 06:15:18;;;;;;;42.95;22.42;;;;;;;3.23;70.76;95617.59;5133233;27;20028;-77
2021/10/27 06:17:44;;;;;;;63.50;33.60;;;;;;;3.35;70.78;95629.97;5132885;27;20088;-76
2021/10/27 06:20:10;;;;;;;69.63;36.15;;;;;;;3.85;70.77;95711.81;5131092;27;20016;-77
2021/10/27 06:22:36;;;;;;;106.70;45.47;;;;;;;3.43;70.54;95653.59;5123530;27;20024;-76
2021/10/27 06:25:02;;;;;;;75.63;34.92;;;;;;;3.35;70.24;95651.34;5118126;27;20035;-76
2021/10/27 06:27:27;;;;;;;63.22;34.35;;;;;;;3.37;70.30;95658.97;5115011;27;20046;-76
2021/10/27 06:30:09;;;;;;;71.78;34.67;;;;;;;3.85;70.63;95727.22;5120810;27;20023;-76
2021/10/27 06:32:55;;;;;;;53.70;29.17;;;;;;;3.48;70.22;95664.53;5102074;27;20048;-76
2021/10/27 06:35:40;;;;;;;52.88;28.92;;;;;;;3.52;70.56;95655.78;5102975;28;20026;-76
2021/10/27 06:48:39;;;;;;;53.97;30.10;;;;;;;3.82;69.92;95668.25;5119086;27;20122;-76
2021/10/27 06:51:05;;;;;;;50.67;31.20;;;;;;;3.74;69.73;95666.00;5132584;27;20122;-76
2021/10/27 06:53:31;;;;;;;55.60;32.50;;;;;;;3.87;70.40;95678.31;5112511;28;20412;-76
2021/10/27 06:55:57;;;;;;;51.90;30.30;;;;;;;4.31;70.88;95739.84;5095896;28;20035;-75
2021/10/27 06:58:23;;;;;;;44.45;28.90;;;;;;;3.84;70.49;95643.28;5108470;28;20181;-77
2021/10/27 07:00:56;;;;;;;48.08;26.33;;;;;;;4.38;70.48;95724.09;5104857;28;20035;-76
2021/10/27 07:03:41;;;;;;;40.42;27.33;;;;;;;4.62;70.61;95744.47;5100813;27;20015;-75
2021/10/27 07:06:26;;;;;;;45.40;26.90;;;;;;;4.72;70.63;95743.16;5106827;28;20057;-74
2021/10/27 07:17:03;;;;;;;34.45;22.13;;;;;;;5.07;70.03;95725.25;5108941;28;20493;-75
2021/10/27 07:19:29;;;;;;;35.30;22.77;;;;;;;5.24;69.71;95732.22;5111972;28;20024;-74
2021/10/27 07:21:54;;;;;;;38.72;23.55;;;;;;;5.35;69.73;95735.94;5113860;28;20477;-75
2021/10/27 07:24:20;;;;;;;29.77;19.88;;;;;;;5.53;69.99;95735.97;5089089;28;20031;-75
2021/10/27 07:26:46;;;;;;;31.45;19.67;;;;;;;5.66;69.95;95731.06;5073166;28;20127;-72
2021/10/27 07:29:16;;;;;;;34.75;23.05;;;;;;;5.79;69.83;95735.53;5101798;28;20027;-72
2021/10/27 07:31:43;;;;;;;40.00;25.85;;;;;;;5.87;69.21;95729.16;5117514;27;20134;-81
2021/10/27 07:34:12;;;;;;;44.05;26.73;;;;;;;5.97;68.22;95722.69;5109369;27;20027;-78
2021/10/27 07:42:05;;;;;;;47.75;30.13;;;;;;;6.69;71.61;95722.38;5123684;27;20101;-78
2021/10/27 07:44:31;;;;;;;68.30;39.88;;;;;;;6.54;68.22;95661.19;5113399;27;20023;-86
2021/10/27 07:46:56;;;;;;;27.45;17.92;;;;;;;6.72;65.24;95655.06;5118510;27;20028;-78
2021/10/27 07:49:22;;;;;;;14.88;11.77;;;;;;;7.27;62.73;95733.88;5112144;27;20031;-78
2021/10/27 07:51:50;;;;;;;16.90;11.93;;;;;;;7.36;63.50;95728.19;5118606;27;20038;-75
2021/10/27 07:54:15;;;;;;;18.90;14.07;;;;;;;7.16;62.64;95682.78;5124127;27;20052;-76
2021/10/27 07:56:41;;;;;;;16.13;12.57;;;;;;;7.69;61.16;95739.31;5124562;27;20031;-76
2021/10/27 07:59:07;;;;;;;13.82;11.70;;;;;;;7.84;59.92;95720.34;5121630;27;20037;-75
2021/10/27 08:01:32;;;;;;;16.00;11.57;;;;;;;8.06;59.38;95733.69;5120896;27;20054;-77
2021/10/27 08:03:59;;;;;;;13.85;11.05;;;;;;;8.15;59.12;95732.31;5122025;27;20125;-75
2021/10/27 08:06:24;;;;;;;14.13;11.13;;;;;;;8.28;58.74;95724.69;5116993;27;20039;-73
2021/10/27 08:08:50;;;;;;;17.15;11.95;;;;;;;8.41;57.69;95732.56;5134786;27;20067;-72
2021/10/27 08:11:15;;;;;;;13.85;10.32;;;;;;;8.50;56.76;95725.09;5133747;27;20027;-72
2021/10/27 08:13:41;;;;;;;11.82;9.55;;;;;;;8.46;55.60;95700.28;5133605;27;20484;-72
2021/10/27 08:16:06;;;;;;;12.07;9.73;;;;;;;8.61;56.68;95721.84;5131054;27;20038;-74
2021/10/27 08:18:32;;;;;;;11.13;9.57;;;;;;;8.64;55.18;95720.84;5123123;27;20031;-72
2021/10/27 08:20:57;;;;;;;11.63;9.77;;;;;;;8.61;55.58;95723.59;5128896;27;20043;-72
2021/10/27 08:23:28;;;;;;;13.48;9.82;;;;;;;8.61;55.74;95718.41;5100219;27;20031;-76
2021/10/27 08:25:56;;;;;;;12.95;10.23;;;;;;;8.60;55.61;95696.03;5131722;27;20079;-78
2021/10/27 08:28:28;;;;;;;12.05;9.50;;;;;;;8.59;55.40;95677.06;5127673;27;20195;-74
2021/10/27 08:33:51;;;;;;;14.38;10.48;;;;;;;9.19;54.88;95714.81;5122621;27;20059;-72
2021/10/27 08:36:16;;;;;;;12.65;10.50;;;;;;;9.18;53.96;95693.25;5124705;27;20404;-72
2021/10/27 08:38:42;;;;;;;12.82;9.90;;;;;;;9.27;53.90;95712.56;5112245;27;20023;-73
2021/10/27 08:41:07;;;;;;;12.70;10.45;;;;;;;9.46;55.05;95711.41;5126686;27;20031;-73
2021/10/27 08:43:33;;;;;;;12.60;10.85;;;;;;;9.62;54.82;95706.91;5131381;27;20035;-72
2021/10/27 08:46:00;;;;;;;14.38;10.70;;;;;;;9.78;55.17;95707.56;5134684;27;20034;-72
2021/10/27 08:48:26;;;;;;;12.35;10.20;;;;;;;9.86;53.49;95694.06;5096735;27;20496;-74
2021/10/27 08:50:52;;;;;;;16.40;9.18;;;;;;;9.88;52.86;95702.59;5110428;28;20131;-74
2021/10/27 08:53:21;;;;;;;12.75;10.43;;;;;;;9.90;52.02;95705.91;5113835;27;20043;-74
2021/10/27 08:55:49;;;;;;;11.73;9.63;;;;;;;10.04;53.08;95707.59;5124763;27;20497;-71
2021/10/27 08:58:20;;;;;;;11.75;10.45;;;;;;;10.14;52.93;95703.47;5131151;27;20023;-71
2021/10/27 09:09:21;;;;;;;11.27;9.82;;;;;;;10.54;52.08;95695.59;5118522;27;20293;-72
2021/10/27 09:15:09;;;;;;;15.57;12.02;;;;;;;10.71;51.46;95695.25;5131848;27;20111;-72
2021/10/27 09:34:27;;;;;;;15.55;12.55;;;;;;;11.19;49.87;95674.53;5149196;27;20049;-73
2021/10/27 09:43:05;;;;;;;13.20;11.05;;;;;;;11.38;50.07;95676.63;5113876;28;20122;-74
2021/10/27 09:56:44;;;;;;;16.27;12.73;;;;;;;11.49;48.24;95657.66;5131341;28;20038;-74
2021/10/27 10:04:04;;;;;;;19.67;12.50;;;;;;;11.09;48.48;95582.53;5112659;27;20072;-75
2021/10/27 10:04:42;;;;;;;11.93;10.68;;;;;;;11.26;48.41;95590.88;5130414;27;20028;-75
2021/10/27 10:07:08;;;;;;;12.63;10.55;;;;;;;11.72;46.90;95655.94;5128994;28;20050;-75
2021/10/27 10:09:37;;;;;;;15.60;12.05;;;;;;;11.72;47.83;95642.94;5124716;28;20046;-74
2021/10/27 10:12:03;;;;;;;32.75;18.90;;;;;;;11.89;47.96;95649.53;5130169;28;20023;-72
2021/10/27 10:14:29;;;;;;;16.55;12.73;;;;;;;11.97;47.64;95651.56;5131359;27;20028;-72
2021/10/27 10:16:56;;;;;;;15.73;13.20;;;;;;;12.02;47.40;95644.25;5112995;28;20090;-72
2021/10/27 10:19:23;;;;;;;14.98;12.43;;;;;;;12.02;47.30;95634.66;5113150;27;20038;-80
2021/10/27 10:21:49;;;;;;;13.32;10.65;;;;;;;12.01;46.78;95625.19;5133807;27;20102;-76
2021/10/27 10:24:24;;;;;;;13.23;10.70;;;;;;;12.04;46.16;95640.56;5132009;27;20456;-78
2021/10/27 10:26:50;;;;;;;14.63;11.93;;;;;;;11.92;46.70;95628.47;5134959;27;20023;-72
2021/10/27 10:32:18;;;;;;;18.25;15.65;;;;;;;12.00;46.03;95636.53;5123889;27;20140;-75
2021/10/27 10:34:49;;;;;;;14.02;10.70;;;;;;;11.88;45.53;95616.63;5149505;27;20027;-74
2021/10/27 10:38:17;;;;;;;12.35;9.55;;;;;;;11.91;45.87;95631.19;5141807;27;20053;-74
2021/10/27 10:43:06;;;;;;;11.77;10.25;;;;;;;11.91;46.74;95621.59;5115390;27;20066;-72
2021/10/27 10:57:14;;;;;;;11.30;9.35;;;;;;;12.28;46.53;95582.34;5130995;27;20323;-73
2021/10/27 11:41:36;;;;;;;11.05;9.48;;;;;;;12.82;44.10;95568.53;5132089;27;20020;-72
2021/10/27 11:44:15;;;;;;;12.68;9.57;;;;;;;12.78;43.63;95556.69;5132078;27;20023;-72
2021/10/27 11:46:46;;;;;;;25.00;15.73;;;;;;;12.84;44.36;95568.41;5128997;27;20028;-72
2021/10/27 11:49:12;;;;;;;14.10;10.75;;;;;;;12.95;44.28;95569.22;5115662;27;20031;-72
2021/10/27 11:51:39;;;;;;;10.60;9.00;;;;;;;12.99;44.19;95566.34;5131953;27;20046;-71
2021/10/27 11:54:11;;;;;;;14.50;10.95;;;;;;;12.95;44.14;95550.09;5115208;27;20088;-72
2021/10/27 11:56:37;;;;;;;18.15;10.38;;;;;;;13.11;44.04;95570.56;5131798;27;20038;-72
2021/10/27 11:59:02;;;;;;;10.68;9.43;;;;;;;13.10;43.05;95563.72;5131966;27;20408;-71
2021/10/27 12:01:35;;;;;;;12.80;9.25;;;;;;;13.09;43.37;95552.47;5131649;27;20435;-73
2021/10/27 12:04:13;;;;;;;10.98;9.65;;;;;;;13.15;43.24;95562.38;5116438;27;20031;-73
2021/10/27 12:07:02;;;;;;;12.02;9.40;;;;;;;13.16;43.08;95552.78;5132240;27;20127;-74
2021/10/27 12:15:09;;;;;;;14.10;12.00;;;;;;;13.22;43.37;95547.06;5132497;27;20477;-73
2021/10/27 12:17:38;;;;;;;13.13;10.65;;;;;;;13.19;43.32;95544.69;5119626;27;20058;-73
2021/10/27 12:20:04;;;;;;;10.45;8.65;;;;;;;13.24;43.57;95550.38;5131878;27;20027;-73
2021/10/27 12:22:31;;;;;;;10.80;9.00;;;;;;;13.27;41.40;95533.66;5130383;27;20031;-74
2021/10/27 12:25:04;;;;;;;13.98;9.82;;;;;;;13.22;42.14;95541.84;5131556;27;20019;-74
2021/10/27 12:27:38;;;;;;;12.52;9.48;;;;;;;13.26;42.44;95545.91;5131849;27;20113;-74
2021/10/27 12:30:08;;;;;;;11.27;9.52;;;;;;;13.30;43.08;95544.69;5152837;27;20032;-73
2021/10/27 12:32:34;;;;;;;10.60;9.40;;;;;;;13.24;42.59;95547.75;5135347;27;20062;-73
2021/10/27 12:35:07;;;;;;;11.05;8.10;;;;;;;13.27;42.73;95550.16;5152592;27;20022;-74
2021/10/27 12:37:43;;;;;;;10.10;8.55;;;;;;;13.25;42.73;95531.13;5152655;27;20488;-73
2021/10/27 12:40:27;;;;;;;10.20;8.75;;;;;;;13.28;42.50;95537.94;5136745;27;20018;-73
2021/10/27 12:42:58;;;;;;;10.07;9.02;;;;;;;13.26;42.22;95537.22;5151622;27;20057;-73
2021/10/27 12:45:38;;;;;;;13.30;8.50;;;;;;;13.28;42.69;95536.13;5135138;27;20389;-73
2021/10/27 12:48:13;;;;;;;10.48;9.40;;;;;;;13.28;43.13;95543.97;5153279;27;20121;-72
2021/10/27 12:50:58;;;;;;;11.55;9.90;;;;;;;13.30;43.62;95542.06;5135045;27;20069;-73
2021/10/27 12:53:40;;;;;;;9.65;8.52;;;;;;;13.29;43.84;95537.81;5151863;27;20042;-74
2021/10/27 12:56:11;;;;;;;12.07;9.80;;;;;;;13.26;44.01;95518.94;5153206;27;20107;-73
2021/10/27 12:58:40;;;;;;;14.35;9.07;;;;;;;13.30;43.17;95529.03;5135074;27;20400;-73
2021/10/27 13:01:36;;;;;;;10.07;9.02;;;;;;;13.22;43.93;95520.97;5135284;27;20023;-73
2021/10/27 13:04:24;;;;;;;11.25;9.65;;;;;;;13.23;42.37;95519.19;5151528;27;20145;-73
2021/10/27 13:31:14;;;;;;;9.20;8.20;;;;;;;12.83;45.61;95518.03;5117813;28;20447;-73
2021/10/27 13:33:39;;;;;;;10.73;7.45;;;;;;;12.82;45.17;95510.34;5129532;28;20054;-73
2021/10/27 13:36:05;;;;;;;11.32;9.07;;;;;;;12.80;46.03;95526.09;5129088;28;20027;-72
2021/10/27 13:38:35;;;;;;;10.25;8.77;;;;;;;12.68;47.03;95514.06;5128397;28;20060;-73
2021/10/27 13:41:01;;;;;;;10.65;8.88;;;;;;;12.68;47.63;95521.88;5128346;28;20404;-72
2021/10/27 13:43:32;;;;;;;10.70;9.02;;;;;;;12.60;48.66;95512.06;5123417;28;20031;-73
2021/10/27 13:49:18;;;;;;;11.68;9.32;;;;;;;12.49;47.83;95518.13;5146244;27;20042;-73
2021/10/27 14:08:16;;;;;;;10.93;8.75;;;;;;;12.43;45.87;95515.19;5132314;27;20058;-71
2021/10/27 14:10:46;;;;;;;10.52;9.02;;;;;;;12.39;46.26;95513.75;5118481;27;20023;-73
2021/10/27 14:59:13;;;;;;;17.75;12.57;;;;;;;10.02;55.04;95518.19;5112862;28;20072;-73
2021/10/27 15:20:46;;;;;;;19.73;14.27;;;;;;;9.36;57.57;95545.19;5139028;27;20033;-72
2021/10/27 15:26:02;;;;;;;;;;;;;;;9.31;56.01;95548.09;5153821;27;20030;-73
2021/10/27 15:28:48;;;;;;;22.95;14.75;;;;;;;9.14;56.08;95533.66;5153493;27;19919;-72
2021/10/27 15:42:32;;;;;;;19.92;13.32;;;;;;;9.01;55.11;95561.31;5153350;27;20125;-72
2021/10/27 15:45:20;;;;;;;23.25;12.98;;;;;;;8.98;55.38;95564.09;5153502;27;20032;-72
2021/10/27 15:53:00;;;;;;;21.10;13.85;;;;;;;8.84;55.56;95567.56;5135839;27;20070;-72
2021/10/27 15:55:25;;;;;;;25.83;12.77;;;;;;;8.79;55.54;95566.22;5153973;27;20468;-72
2021/10/27 15:57:51;;;;;;;19.90;12.82;;;;;;;8.75;55.82;95569.91;5135121;27;20029;-72